createdAt,value
2023-02-05T00:00:02.991Z,101785.84
2023-02-05T00:00:47.536Z,101795.03
2023-02-05T00:01:29.260Z,101766.47
2023-02-05T00:02:11.255Z,101787.72
2023-02-05T00:02:53.021Z,101784.94
2023-02-05T00:03:36.093Z,101780.50
2023-02-05T00:04:17.865Z,101789.22
2023-02-05T00:04:59.758Z,101779.31
2023-02-05T00:05:41.647Z,101787.63
2023-02-05T00:06:23.657Z,101799.34
2023-02-05T00:07:06.059Z,101769.16
2023-02-05T00:07:47.824Z,101767.22
2023-02-05T00:08:30.371Z,101774.91
2023-02-05T00:09:12.438Z,101777.22
2023-02-05T00:09:54.194Z,101784.75
2023-02-05T00:10:35.976Z,101765.34
2023-02-05T00:11:17.843Z,101795.59
2023-02-05T00:12:00.016Z,101798.31
2023-02-05T00:12:41.887Z,101762.50
2023-02-05T00:13:23.761Z,101784.25
2023-02-05T00:14:05.523Z,101795.03
2023-02-05T00:14:47.257Z,101791.28
2023-02-05T00:15:29.109Z,101792.97
2023-02-05T00:16:14.761Z,101793.81
2023-02-05T00:16:56.519Z,101792.03
2023-02-05T00:17:38.322Z,101760.72
2023-02-05T00:18:20.041Z,101778.25
2023-02-05T00:19:01.805Z,101789.50
2023-02-05T00:19:43.472Z,101768.06
2023-02-05T00:20:25.168Z,101793.56
2023-02-05T00:21:08.135Z,101791.28
2023-02-05T00:21:50.061Z,101792.63
2023-02-05T00:22:32.039Z,101786.97
2023-02-05T00:23:13.781Z,101794.09
2023-02-05T00:23:55.551Z,101785.84
2023-02-05T00:24:37.413Z,101782.47
2023-02-05T00:25:19.105Z,101789.81
2023-02-05T00:26:01.361Z,101785.94
2023-02-05T00:26:46.211Z,101772.25
2023-02-05T00:27:28.022Z,101776.13
2023-02-05T00:28:10.228Z,101774.25
2023-02-05T00:28:52.026Z,101764.94
2023-02-05T00:29:33.713Z,101787.72
2023-02-05T00:30:15.470Z,101762.59
2023-02-05T00:30:57.285Z,101760.09
2023-02-05T00:31:39.138Z,101791.69
2023-02-05T00:32:20.853Z,101785.09
2023-02-05T00:33:02.580Z,101762.22
2023-02-05T00:33:44.615Z,101757.28
2023-02-05T00:34:26.323Z,101772.16
2023-02-05T00:35:08.209Z,101796.16
2023-02-05T00:35:50.296Z,101798.09
2023-02-05T00:36:32.049Z,101792.94
2023-02-05T00:37:13.732Z,101802.50
2023-02-05T00:37:56.411Z,101801.56
2023-02-05T00:38:38.238Z,101750.41
2023-02-05T00:39:20.031Z,101793.53
2023-02-05T00:40:02.349Z,101799.72
2023-02-05T00:40:44.127Z,101798.41
2023-02-05T00:41:25.813Z,101778.81
2023-02-05T00:42:07.523Z,101800.66
2023-02-05T00:42:49.211Z,101786.97
2023-02-05T00:43:31.094Z,101797.13
2023-02-05T00:44:12.806Z,101776.03
2023-02-05T00:44:54.504Z,101800.38
2023-02-05T00:45:36.585Z,101782.97
2023-02-05T00:46:18.637Z,101803.00
2023-02-05T00:47:00.387Z,101801.22
2023-02-05T00:47:42.153Z,101793.34
2023-02-05T00:48:24.166Z,101782.22
2023-02-05T00:49:05.926Z,101756.41
2023-02-05T00:49:47.599Z,101786.63
2023-02-05T00:50:29.528Z,101784.00
2023-02-05T00:51:11.589Z,101775.72
2023-02-05T00:51:54.152Z,101783.50
2023-02-05T00:52:35.840Z,101787.91
2023-02-05T00:53:18.571Z,101752.09
2023-02-05T00:54:00.340Z,101781.63
2023-02-05T00:54:42.192Z,101758.03
2023-02-05T00:55:24.110Z,101787.56
2023-02-05T00:56:05.988Z,101757.84
2023-02-05T00:56:50.583Z,101780.78
2023-02-05T00:57:32.919Z,101781.19
2023-02-05T00:58:15.744Z,101770.69
2023-02-05T00:58:57.605Z,101753.16
2023-02-05T00:59:39.345Z,101778.81
2023-02-05T01:00:21.121Z,101766.53
2023-02-05T01:01:03.821Z,101770.84
2023-02-05T01:01:47.457Z,101756.25
2023-02-05T01:02:29.122Z,101751.09
2023-02-05T01:03:11.425Z,101774.03
2023-02-05T01:03:53.292Z,101758.09
2023-02-05T01:04:34.970Z,101774.22
2023-02-05T01:05:16.753Z,101771.31
2023-02-05T01:05:59.419Z,101769.34
2023-02-05T01:06:41.173Z,101763.25
2023-02-05T01:07:22.806Z,101778.16
2023-02-05T01:08:06.756Z,101773.41
2023-02-05T01:08:49.583Z,101778.34
2023-02-05T01:09:31.291Z,101752.69
2023-02-05T01:10:12.969Z,101772.75
2023-02-05T01:10:56.750Z,101772.16
2023-02-05T01:11:38.398Z,101776.19
2023-02-05T01:12:20.645Z,101775.06
2023-02-05T01:13:03.643Z,101769.34
2023-02-05T01:13:45.374Z,101741.81
2023-02-05T01:14:27.042Z,101781.53
2023-02-05T01:15:09.731Z,101785.53
2023-02-05T01:15:51.664Z,101768.41
2023-02-05T01:16:33.404Z,101777.28
2023-02-05T01:17:15.379Z,101772.97
2023-02-05T01:17:59.256Z,101763.91
2023-02-05T01:18:40.961Z,101776.28
2023-02-05T01:19:22.783Z,101773.66
2023-02-05T01:20:06.011Z,101774.13
2023-02-05T01:20:47.711Z,101762.06
2023-02-05T01:21:29.396Z,101770.69
2023-02-05T01:22:11.615Z,101769.75
2023-02-05T01:22:53.300Z,101772.91
2023-02-05T01:23:35.004Z,101770.75
2023-02-05T01:24:16.753Z,101738.50
2023-02-05T01:24:59.156Z,101772.34
2023-02-05T01:25:40.946Z,101771.03
2023-02-05T01:26:23.217Z,101769.75
2023-02-05T01:27:04.912Z,101771.22
2023-02-05T01:27:46.592Z,101768.59
2023-02-05T01:28:28.889Z,101737.13
2023-02-05T01:29:10.527Z,101770.69
2023-02-05T01:29:52.285Z,101766.91
2023-02-05T01:30:34.858Z,101757.25
2023-02-05T01:31:16.670Z,101766.25
2023-02-05T01:31:58.485Z,101770.03
2023-02-05T01:32:41.528Z,101765.97
2023-02-05T01:33:23.251Z,101728.22
2023-02-05T01:34:05.438Z,101762.50
2023-02-05T01:34:47.291Z,101747.06
2023-02-05T01:35:29.211Z,101760.06
2023-02-05T01:36:10.944Z,101738.31
2023-02-05T01:36:52.645Z,101730.25
2023-02-05T01:37:34.400Z,101753.69
2023-02-05T01:38:16.134Z,101710.69
2023-02-05T01:38:57.811Z,101745.94
2023-02-05T01:39:39.628Z,101748.91
2023-02-05T01:40:21.712Z,101747.22
2023-02-05T01:41:03.526Z,101752.56
2023-02-05T01:41:46.416Z,101735.44
2023-02-05T01:42:30.270Z,101754.00
2023-02-05T01:43:17.683Z,101734.94
2023-02-05T01:44:12.844Z,101755.56
2023-02-05T01:45:22.243Z,101753.59
2023-02-05T01:46:29.521Z,101749.06
2023-02-05T01:47:11.248Z,101729.16
2023-02-05T01:47:55.571Z,101746.13
2023-02-05T01:48:43.182Z,101713.16
2023-02-05T01:49:33.248Z,101749.72
2023-02-05T01:50:16.514Z,101737.44
2023-02-05T01:51:04.288Z,101712.78
2023-02-05T01:51:48.092Z,101724.50
2023-02-05T01:52:30.046Z,101739.44
2023-02-05T01:53:15.458Z,101732.28
2023-02-05T01:53:57.373Z,101732.19
2023-02-05T01:54:44.665Z,101726.97
2023-02-05T01:55:27.932Z,101710.94
2023-02-05T01:56:12.722Z,101740.06
2023-02-05T01:57:19.786Z,101724.22
2023-02-05T01:58:02.273Z,101697.69
2023-02-05T01:59:14.441Z,101719.78
2023-02-05T01:59:57.299Z,101710.16
2023-02-05T02:00:39.085Z,101711.66
2023-02-05T02:01:20.940Z,101727.59
2023-02-05T02:02:06.447Z,101715.63
2023-02-05T02:02:49.556Z,101717.97
2023-02-05T02:03:31.924Z,101726.97
2023-02-05T02:04:18.559Z,101724.16
2023-02-05T02:05:07.027Z,101724.84
2023-02-05T02:05:48.849Z,101730.94
2023-02-05T02:06:35.312Z,101729.91
2023-02-05T02:07:21.172Z,101713.94
2023-02-05T02:08:03.408Z,101729.41
2023-02-05T02:08:45.192Z,101717.28
2023-02-05T02:09:27.677Z,101704.66
2023-02-05T02:10:12.906Z,101731.34
2023-02-05T02:10:58.199Z,101701.06
2023-02-05T02:11:42.943Z,101721.69
2023-02-05T02:12:29.009Z,101719.47
2023-02-05T02:13:12.669Z,101701.72
2023-02-05T02:13:55.947Z,101732.44
2023-02-05T02:14:40.415Z,101720.28
2023-02-05T02:15:25.599Z,101695.00
2023-02-05T02:16:08.618Z,101693.09
2023-02-05T02:16:54.837Z,101716.72
2023-02-05T02:17:40.028Z,101691.25
2023-02-05T02:18:28.130Z,101683.91
2023-02-05T02:19:29.928Z,101703.41
2023-02-05T02:20:15.255Z,101698.19
2023-02-05T02:21:02.752Z,101713.19
2023-02-05T02:22:13.071Z,101708.09
2023-02-05T02:22:54.917Z,101712.56
2023-02-05T02:23:39.494Z,101703.94
2023-02-05T02:24:26.870Z,101707.31
2023-02-05T02:25:11.578Z,101708.16
2023-02-05T02:26:20.712Z,101671.69
2023-02-05T02:27:11.064Z,101703.78
2023-02-05T02:28:14.087Z,101677.94
2023-02-05T02:29:01.705Z,101701.34
2023-02-05T02:29:56.586Z,101649.44
2023-02-05T02:30:49.170Z,101699.84
2023-02-05T02:31:35.239Z,101692.25
2023-02-05T02:32:29.335Z,101695.13
2023-02-05T02:33:32.076Z,101688.13
2023-02-05T02:34:30.427Z,101683.31
2023-02-05T02:35:18.036Z,101687.16
2023-02-05T02:36:08.911Z,101684.31
2023-02-05T02:36:50.574Z,101677.22
2023-02-05T02:37:47.942Z,101662.00
2023-02-05T02:38:37.684Z,101681.84
2023-02-05T02:39:26.247Z,101647.22
2023-02-05T02:40:16.128Z,101679.38
2023-02-05T02:41:09.534Z,101689.47
2023-02-05T02:41:55.340Z,101685.63
2023-02-05T02:42:48.791Z,101645.75
2023-02-05T02:43:30.391Z,101686.75
2023-02-05T02:44:23.416Z,101695.81
2023-02-05T02:45:09.538Z,101704.66
2023-02-05T02:45:58.481Z,101680.59
2023-02-05T02:46:52.051Z,101696.31
2023-02-05T02:47:41.934Z,101704.56
2023-02-05T02:48:26.456Z,101681.13
2023-02-05T02:49:16.256Z,101689.44
2023-02-05T02:50:02.949Z,101700.25
2023-02-05T02:50:49.479Z,101706.44
2023-02-05T02:51:33.960Z,101712.41
2023-02-05T02:52:19.599Z,101703.56
2023-02-05T02:53:16.052Z,101694.78
2023-02-05T02:54:00.882Z,101699.50
2023-02-05T02:54:45.734Z,101688.25
2023-02-05T02:55:30.111Z,101677.78
2023-02-05T02:56:13.682Z,101704.81
2023-02-05T02:56:57.779Z,101700.84
2023-02-05T02:57:43.418Z,101673.84
2023-02-05T02:58:33.777Z,101697.06
2023-02-05T02:59:19.398Z,101710.56
2023-02-05T03:00:04.380Z,101712.75
2023-02-05T03:00:48.002Z,101703.66
2023-02-05T03:01:34.760Z,101704.75
2023-02-05T03:02:17.684Z,101709.03
2023-02-05T03:03:05.113Z,101675.72
2023-02-05T03:03:54.361Z,101689.72
2023-02-05T03:04:46.415Z,101697.06
2023-02-05T03:05:30.604Z,101697.81
2023-02-05T03:06:14.439Z,101699.25
2023-02-05T03:07:06.013Z,101683.06
2023-02-05T03:08:20.651Z,101686.75
2023-02-05T03:09:30.290Z,101685.91
2023-02-05T03:10:19.771Z,101689.22
2023-02-05T03:11:11.254Z,101660.59
2023-02-05T03:11:53.134Z,101682.69
2023-02-05T03:12:36.084Z,101675.84
2023-02-05T03:13:19.528Z,101674.28
2023-02-05T03:14:06.615Z,101665.34
2023-02-05T03:14:52.687Z,101652.66
2023-02-05T03:15:34.844Z,101669.38
2023-02-05T03:16:18.401Z,101649.81
2023-02-05T03:17:00.140Z,101665.81
2023-02-05T03:17:43.700Z,101656.88
2023-02-05T03:18:25.462Z,101669.03
2023-02-05T03:19:07.844Z,101638.00
2023-02-05T03:19:57.676Z,101678.47
2023-02-05T03:20:45.626Z,101645.66
2023-02-05T03:21:36.684Z,101660.22
2023-02-05T03:22:18.365Z,101665.31
2023-02-05T03:23:00.051Z,101637.34
2023-02-05T03:23:41.888Z,101650.38
2023-02-05T03:24:24.280Z,101657.41
2023-02-05T03:25:07.930Z,101640.19
2023-02-05T03:25:49.951Z,101659.34
2023-02-05T03:26:36.921Z,101659.91
2023-02-05T03:27:27.122Z,101654.69
2023-02-05T03:28:10.877Z,101663.72
2023-02-05T03:28:57.170Z,101661.00
2023-02-05T03:29:44.596Z,101644.41
2023-02-05T03:30:43.855Z,101644.91
2023-02-05T03:31:34.598Z,101661.13
2023-02-05T03:32:45.718Z,101653.84
2023-02-05T03:33:47.559Z,101669.47
2023-02-05T03:34:51.442Z,101660.00
2023-02-05T03:36:00.844Z,101659.09
2023-02-05T03:36:58.140Z,101662.34
2023-02-05T03:37:55.059Z,101662.19
2023-02-05T03:39:01.626Z,101661.97
2023-02-05T03:40:05.812Z,101653.09
2023-02-05T03:41:53.748Z,101653.50
2023-02-05T03:43:09.326Z,101653.94
2023-02-05T03:44:10.206Z,101648.44
2023-02-05T03:45:20.269Z,101648.88
2023-02-05T03:46:17.104Z,101640.94
2023-02-05T03:47:37.336Z,101663.69
2023-02-05T03:48:36.962Z,101657.97
2023-02-05T03:49:52.561Z,101659.19
2023-02-05T03:50:39.635Z,101648.47
2023-02-05T03:51:35.711Z,101659.53
2023-02-05T03:52:27.358Z,101646.13
2023-02-05T03:53:14.581Z,101664.91
2023-02-05T03:54:11.877Z,101671.00
2023-02-05T03:55:11.056Z,101666.31
2023-02-05T03:56:09.449Z,101663.19
2023-02-05T03:57:13.022Z,101663.78
2023-02-05T03:58:00.989Z,101666.22
2023-02-05T03:58:49.725Z,101654.53
2023-02-05T03:59:34.789Z,101656.88
2023-02-05T04:00:17.555Z,101633.94
2023-02-05T04:01:01.494Z,101633.59
2023-02-05T04:01:45.504Z,101633.41
2023-02-05T04:02:29.062Z,101648.13
2023-02-05T04:03:12.438Z,101662.22
2023-02-05T04:03:54.338Z,101635.44
2023-02-05T04:04:36.089Z,101653.75
2023-02-05T04:05:18.716Z,101654.06
2023-02-05T04:06:01.425Z,101641.25
2023-02-05T04:06:52.634Z,101660.59
2023-02-05T04:07:34.602Z,101652.53
2023-02-05T04:08:16.940Z,101655.16
2023-02-05T04:09:03.349Z,101633.28
2023-02-05T04:09:45.569Z,101651.59
2023-02-05T04:10:28.224Z,101634.16
2023-02-05T04:11:11.103Z,101655.59
2023-02-05T04:11:53.568Z,101651.63
2023-02-05T04:12:35.818Z,101656.13
2023-02-05T04:13:18.950Z,101658.91
2023-02-05T04:14:00.731Z,101652.16
2023-02-05T04:14:43.257Z,101647.22
2023-02-05T04:15:26.884Z,101648.50
2023-02-05T04:16:10.975Z,101648.81
2023-02-05T04:16:53.053Z,101626.34
2023-02-05T04:17:38.462Z,101601.56
2023-02-05T04:18:20.161Z,101656.06
2023-02-05T04:19:03.132Z,101641.25
2023-02-05T04:19:45.722Z,101639.66
2023-02-05T04:20:29.174Z,101649.13
2023-02-05T04:21:11.077Z,101645.56
2023-02-05T04:21:55.435Z,101646.59
2023-02-05T04:22:37.241Z,101643.50
2023-02-05T04:23:19.063Z,101648.81
2023-02-05T04:24:00.799Z,101650.00
2023-02-05T04:24:42.858Z,101649.50
2023-02-05T04:25:24.814Z,101651.44
2023-02-05T04:26:08.521Z,101653.31
2023-02-05T04:26:56.920Z,101637.88
2023-02-05T04:27:38.896Z,101666.53
2023-02-05T04:28:21.140Z,101647.22
2023-02-05T04:29:03.267Z,101663.72
2023-02-05T04:29:47.887Z,101658.34
2023-02-05T04:30:29.873Z,101655.13
2023-02-05T04:31:12.454Z,101653.72
2023-02-05T04:31:55.897Z,101623.41
2023-02-05T04:32:37.726Z,101656.56
2023-02-05T04:33:19.887Z,101628.34
2023-02-05T04:34:02.016Z,101650.78
2023-02-05T04:34:43.879Z,101650.69
2023-02-05T04:35:27.743Z,101632.16
2023-02-05T04:36:09.774Z,101617.31
2023-02-05T04:36:51.530Z,101653.25
2023-02-05T04:37:33.312Z,101656.13
2023-02-05T04:38:15.263Z,101654.72
2023-02-05T04:38:56.937Z,101651.25
2023-02-05T04:39:38.597Z,101650.34
2023-02-05T04:40:20.292Z,101655.56
2023-02-05T04:41:02.033Z,101591.66
2023-02-05T04:41:43.653Z,101649.75
2023-02-05T04:42:25.322Z,101656.00
2023-02-05T04:43:07.152Z,101642.50
2023-02-05T04:43:48.801Z,101628.66
2023-02-05T04:44:30.573Z,101644.50
2023-02-05T04:45:12.316Z,101650.72
2023-02-05T04:45:54.033Z,101660.41
2023-02-05T04:46:35.709Z,101651.34
2023-02-05T04:47:17.354Z,101627.13
2023-02-05T04:48:00.112Z,101659.34
2023-02-05T04:48:41.899Z,101643.91
2023-02-05T04:49:23.558Z,101638.56
2023-02-05T04:50:05.454Z,101670.13
2023-02-05T04:50:47.584Z,101668.19
2023-02-05T04:51:29.288Z,101669.13
2023-02-05T04:52:10.935Z,101669.97
2023-02-05T04:52:52.606Z,101668.44
2023-02-05T04:53:34.265Z,101656.56
2023-02-05T04:54:15.866Z,101658.53
2023-02-05T04:54:57.582Z,101663.44
2023-02-05T04:55:39.201Z,101666.59
2023-02-05T04:56:20.809Z,101661.06
2023-02-05T04:57:02.450Z,101638.03
2023-02-05T04:57:44.168Z,101660.78
2023-02-05T04:58:25.803Z,101664.34
2023-02-05T04:59:10.136Z,101646.47
2023-02-05T04:59:51.815Z,101621.56
2023-02-05T05:00:33.475Z,101635.78
2023-02-05T05:01:21.609Z,101665.53
2023-02-05T05:02:03.387Z,101650.19
2023-02-05T05:02:45.202Z,101667.84
2023-02-05T05:03:26.951Z,101669.25
2023-02-05T05:04:09.122Z,101664.09
2023-02-05T05:04:50.799Z,101658.69
2023-02-05T05:05:35.301Z,101658.38
2023-02-05T05:06:18.161Z,101663.63
2023-02-05T05:07:00.056Z,101663.81
2023-02-05T05:07:41.725Z,101659.53
2023-02-05T05:08:23.344Z,101634.13
2023-02-05T05:09:07.364Z,101652.59
2023-02-05T05:09:50.496Z,101624.75
2023-02-05T05:10:33.056Z,101658.69
2023-02-05T05:11:17.708Z,101652.94
2023-02-05T05:11:59.310Z,101637.69
2023-02-05T05:12:40.903Z,101657.81
2023-02-05T05:13:22.570Z,101653.34
2023-02-05T05:14:04.190Z,101650.59
2023-02-05T05:14:45.842Z,101627.03
2023-02-05T05:15:27.670Z,101652.22
2023-02-05T05:16:11.330Z,101646.22
2023-02-05T05:16:52.948Z,101625.13
2023-02-05T05:17:35.314Z,101652.88
2023-02-05T05:18:16.912Z,101645.69
2023-02-05T05:18:58.561Z,101641.47
2023-02-05T05:19:40.515Z,101638.09
2023-02-05T05:20:22.189Z,101632.78
2023-02-05T05:21:04.978Z,101638.56
2023-02-05T05:21:46.699Z,101648.13
2023-02-05T05:22:28.340Z,101639.41
2023-02-05T05:23:10.040Z,101644.97
2023-02-05T05:23:51.672Z,101642.34
2023-02-05T05:24:33.368Z,101619.59
2023-02-05T05:25:15.087Z,101628.66
2023-02-05T05:25:56.757Z,101642.81
2023-02-05T05:26:43.596Z,101641.03
2023-02-05T05:27:25.307Z,101644.50
2023-02-05T05:28:07.004Z,101621.16
2023-02-05T05:28:53.215Z,101642.88
2023-02-05T05:29:35.337Z,101655.72
2023-02-05T05:30:16.935Z,101613.47
2023-02-05T05:30:58.595Z,101617.28
2023-02-05T05:31:41.352Z,101625.06
2023-02-05T05:32:23.036Z,101639.75
2023-02-05T05:33:04.873Z,101632.44
2023-02-05T05:33:47.153Z,101637.59
2023-02-05T05:34:28.830Z,101617.63
2023-02-05T05:35:10.420Z,101613.59
2023-02-05T05:35:52.022Z,101610.97
2023-02-05T05:36:33.759Z,101607.41
2023-02-05T05:37:15.516Z,101625.13
2023-02-05T05:37:58.104Z,101609.72
2023-02-05T05:38:40.430Z,101632.78
2023-02-05T05:39:40.761Z,101633.91
2023-02-05T05:40:40.922Z,101632.22
2023-02-05T05:41:43.155Z,101635.13
2023-02-05T05:42:43.301Z,101627.94
2023-02-05T05:43:43.291Z,101636.91
2023-02-05T05:44:24.903Z,101616.88
2023-02-05T05:45:06.878Z,101614.25
2023-02-05T05:45:49.327Z,101643.09
2023-02-05T05:46:31.144Z,101617.44
2023-02-05T05:47:12.759Z,101637.84
2023-02-05T05:47:55.003Z,101616.41
2023-02-05T05:48:36.698Z,101638.00
2023-02-05T05:50:08.346Z,101641.47
2023-02-05T05:50:50.067Z,101638.59
2023-02-05T05:51:32.712Z,101605.84
2023-02-05T05:52:14.564Z,101637.28
2023-02-05T05:52:56.226Z,101630.53
2023-02-05T05:53:37.879Z,101634.94
2023-02-05T05:54:19.573Z,101622.50
2023-02-05T05:55:01.213Z,101643.28
2023-02-05T05:55:43.358Z,101643.72
2023-02-05T05:56:25.394Z,101643.44
2023-02-05T05:57:07.712Z,101645.03
2023-02-05T05:57:49.382Z,101642.66
2023-02-05T05:58:31.053Z,101646.94
2023-02-05T05:59:12.847Z,101648.91
2023-02-05T05:59:54.507Z,101646.38
2023-02-05T06:00:40.173Z,101613.59
2023-02-05T06:01:22.869Z,101645.63
2023-02-05T06:02:05.155Z,101648.25
2023-02-05T06:02:46.895Z,101649.09
2023-02-05T06:03:28.610Z,101620.31
2023-02-05T06:04:10.415Z,101650.00
2023-02-05T06:04:52.244Z,101643.09
2023-02-05T06:05:34.383Z,101625.22
2023-02-05T06:06:16.423Z,101628.47
2023-02-05T06:06:59.225Z,101646.59
2023-02-05T06:07:40.921Z,101652.03
2023-02-05T06:08:22.668Z,101652.25
2023-02-05T06:09:04.336Z,101641.41
2023-02-05T06:09:46.134Z,101609.66
2023-02-05T06:10:27.917Z,101654.72
2023-02-05T06:11:09.604Z,101645.91
2023-02-05T06:11:51.311Z,101646.94
2023-02-05T06:12:32.984Z,101634.47
2023-02-05T06:13:14.623Z,101642.88
2023-02-05T06:13:56.255Z,101635.22
2023-02-05T06:14:37.919Z,101643.09
2023-02-05T06:15:19.966Z,101625.09
2023-02-05T06:16:01.915Z,101605.63
2023-02-05T06:16:43.715Z,101606.19
2023-02-05T06:17:25.488Z,101635.31
2023-02-05T06:18:07.108Z,101636.72
2023-02-05T06:18:48.929Z,101639.84
2023-02-05T06:19:30.647Z,101606.47
2023-02-05T06:20:12.760Z,101622.09
2023-02-05T06:20:54.407Z,101638.59
2023-02-05T06:21:36.147Z,101606.75
2023-02-05T06:22:17.803Z,101620.97
2023-02-05T06:22:59.552Z,101625.38
2023-02-05T06:23:41.241Z,101614.88
2023-02-05T06:24:22.868Z,101613.03
2023-02-05T06:25:05.237Z,101613.88
2023-02-05T06:25:46.934Z,101620.31
2023-02-05T06:26:28.610Z,101618.91
2023-02-05T06:27:10.326Z,101620.91
2023-02-05T06:27:52.040Z,101619.41
2023-02-05T06:28:33.690Z,101592.34
2023-02-05T06:29:15.540Z,101583.09
2023-02-05T06:29:57.196Z,101615.00
2023-02-05T06:30:38.921Z,101615.00
2023-02-05T06:31:21.888Z,101612.78
2023-02-05T06:32:03.808Z,101622.84
2023-02-05T06:32:45.521Z,101599.75
2023-02-05T06:33:27.211Z,101621.06
2023-02-05T06:34:08.872Z,101623.50
2023-02-05T06:34:50.510Z,101617.22
2023-02-05T06:35:32.363Z,101627.78
2023-02-05T06:36:14.313Z,101638.56
2023-02-05T06:36:56.260Z,101606.03
2023-02-05T06:37:47.046Z,101639.06
2023-02-05T06:38:29.147Z,101639.28
2023-02-05T06:39:10.858Z,101641.91
2023-02-05T06:39:52.527Z,101641.91
2023-02-05T06:40:34.144Z,101643.00
2023-02-05T06:41:15.757Z,101641.91
2023-02-05T06:41:57.437Z,101646.22
2023-02-05T06:42:39.092Z,101641.91
2023-02-05T06:43:20.737Z,101632.69
2023-02-05T06:44:03.915Z,101645.16
2023-02-05T06:44:45.554Z,101637.59
2023-02-05T06:45:27.191Z,101640.22
2023-02-05T06:46:08.888Z,101634.13
2023-02-05T06:46:50.489Z,101648.53
2023-02-05T06:47:35.223Z,101644.16
2023-02-05T06:48:18.192Z,101644.06
2023-02-05T06:48:59.852Z,101639.66
2023-02-05T06:49:41.447Z,101642.66
2023-02-05T06:50:24.708Z,101643.00
2023-02-05T06:51:06.517Z,101625.75
2023-02-05T06:51:48.185Z,101648.50
2023-02-05T06:52:29.775Z,101636.91
2023-02-05T06:53:11.975Z,101642.78
2023-02-05T06:53:55.252Z,101645.31
2023-02-05T06:54:38.604Z,101645.50
2023-02-05T06:55:20.459Z,101641.19
2023-02-05T06:56:02.139Z,101647.47
2023-02-05T06:56:43.784Z,101631.34
2023-02-05T06:57:25.425Z,101648.22
2023-02-05T06:58:07.902Z,101649.25
2023-02-05T06:58:49.868Z,101633.50
2023-02-05T06:59:31.487Z,101644.19
2023-02-05T07:00:14.135Z,101642.41
2023-02-05T07:00:55.998Z,101630.31
2023-02-05T07:01:37.714Z,101630.69
2023-02-05T07:02:19.589Z,101643.72
2023-02-05T07:03:01.245Z,101638.03
2023-02-05T07:03:42.922Z,101621.56
2023-02-05T07:04:24.603Z,101631.00
2023-02-05T07:05:06.599Z,101635.59
2023-02-05T07:05:48.262Z,101617.03
2023-02-05T07:06:29.976Z,101629.88
2023-02-05T07:07:11.705Z,101609.00
2023-02-05T07:07:53.440Z,101616.59
2023-02-05T07:08:35.246Z,101621.16
2023-02-05T07:09:16.871Z,101629.88
2023-02-05T07:09:58.547Z,101620.63
2023-02-05T07:10:40.210Z,101628.28
2023-02-05T07:11:22.892Z,101620.25
2023-02-05T07:12:05.122Z,101622.00
2023-02-05T07:12:46.889Z,101621.75
2023-02-05T07:13:30.002Z,101603.28
2023-02-05T07:14:11.782Z,101616.13
2023-02-05T07:14:53.431Z,101610.22
2023-02-05T07:15:36.690Z,101579.78
2023-02-05T07:16:18.492Z,101608.44
2023-02-05T07:17:00.104Z,101619.28
2023-02-05T07:17:41.731Z,101618.66
2023-02-05T07:18:24.338Z,101589.22
2023-02-05T07:19:06.016Z,101596.25
2023-02-05T07:19:47.754Z,101600.38
2023-02-05T07:20:29.365Z,101618.16
2023-02-05T07:21:15.910Z,101583.78
2023-02-05T07:21:57.578Z,101609.91
2023-02-05T07:22:39.340Z,101615.34
2023-02-05T07:23:21.040Z,101623.94
2023-02-05T07:24:03.153Z,101606.72
2023-02-05T07:24:44.815Z,101618.91
2023-02-05T07:25:26.616Z,101602.09
2023-02-05T07:26:15.686Z,101611.72
2023-02-05T07:26:57.464Z,101601.25
2023-02-05T07:27:39.126Z,101624.81
2023-02-05T07:28:20.853Z,101611.53
2023-02-05T07:29:04.318Z,101634.66
2023-02-05T07:29:45.922Z,101595.06
2023-02-05T07:30:27.587Z,101624.00
2023-02-05T07:31:12.511Z,101620.63
2023-02-05T07:31:54.290Z,101628.41
2023-02-05T07:32:36.028Z,101628.75
2023-02-05T07:33:17.698Z,101616.03
2023-02-05T07:33:59.375Z,101624.34
2023-02-05T07:34:41.142Z,101625.28
2023-02-05T07:35:22.777Z,101629.59
2023-02-05T07:36:07.299Z,101617.59
2023-02-05T07:36:52.692Z,101617.06
2023-02-05T07:37:34.385Z,101627.38
2023-02-05T07:38:16.352Z,101630.94
2023-02-05T07:38:57.930Z,101625.78
2023-02-05T07:39:39.601Z,101628.31
2023-02-05T07:40:21.429Z,101627.06
2023-02-05T07:41:08.318Z,101621.38
2023-02-05T07:41:51.241Z,101617.44
2023-02-05T07:42:41.479Z,101621.66
2023-02-05T07:43:23.888Z,101603.16
2023-02-05T07:44:05.571Z,101629.69
2023-02-05T07:44:47.383Z,101619.44
2023-02-05T07:45:29.087Z,101593.78
2023-02-05T07:46:14.156Z,101628.75
2023-02-05T07:46:56.037Z,101593.53
2023-02-05T07:47:37.780Z,101585.47
2023-02-05T07:48:19.416Z,101627.38
2023-02-05T07:49:01.155Z,101611.78
2023-02-05T07:49:42.831Z,101606.47
2023-02-05T07:50:24.505Z,101608.94
2023-02-05T07:51:07.027Z,101622.69
2023-02-05T07:51:48.825Z,101634.81
2023-02-05T07:52:30.667Z,101599.00
2023-02-05T07:53:12.305Z,101603.38
2023-02-05T07:53:54.066Z,101623.22
2023-02-05T07:54:35.769Z,101609.09
2023-02-05T07:55:17.618Z,101614.97
2023-02-05T07:56:03.735Z,101628.63
2023-02-05T07:56:45.365Z,101601.97
2023-02-05T07:57:27.229Z,101625.16
2023-02-05T07:58:08.957Z,101617.19
2023-02-05T07:58:50.616Z,101625.97
2023-02-05T07:59:32.236Z,101621.66
2023-02-05T08:00:14.170Z,101620.44
2023-02-05T08:01:00.368Z,101597.59
2023-02-05T08:01:42.050Z,101618.47
2023-02-05T08:02:23.696Z,101615.72
2023-02-05T08:03:05.565Z,101601.97
2023-02-05T08:03:47.238Z,101574.94
2023-02-05T08:04:28.950Z,101608.59
2023-02-05T08:05:10.732Z,101579.66
2023-02-05T08:05:52.403Z,101580.31
2023-02-05T08:06:34.724Z,101581.97
2023-02-05T08:07:16.370Z,101574.22
2023-02-05T08:07:58.058Z,101595.31
2023-02-05T08:08:39.840Z,101618.06
2023-02-05T08:09:21.581Z,101585.69
2023-02-05T08:10:04.910Z,101592.00
2023-02-05T08:10:46.540Z,101570.22
2023-02-05T08:11:28.193Z,101603.34
2023-02-05T08:12:09.966Z,101604.78
2023-02-05T08:12:51.687Z,101600.38
2023-02-05T08:13:33.981Z,101595.34
2023-02-05T08:14:15.663Z,101596.19
2023-02-05T08:14:57.564Z,101578.94
2023-02-05T08:15:39.978Z,101587.94
2023-02-05T08:16:21.786Z,101580.59
2023-02-05T08:17:06.022Z,101553.69
2023-02-05T08:17:48.074Z,101590.66
2023-02-05T08:18:29.703Z,101554.94
2023-02-05T08:19:16.452Z,101576.91
2023-02-05T08:19:59.800Z,101551.78
2023-02-05T08:20:41.442Z,101587.00
2023-02-05T08:21:23.265Z,101573.69
2023-02-05T08:22:04.899Z,101520.94
2023-02-05T08:22:46.938Z,101581.38
2023-02-05T08:23:28.630Z,101589.56
2023-02-05T08:24:10.767Z,101580.72
2023-02-05T08:24:52.511Z,101574.41
2023-02-05T08:25:34.408Z,101583.53
2023-02-05T08:26:17.030Z,101545.53